createdAt,value
2022-07-28T00:00:56.576Z,98808.00
2022-07-28T00:03:23.599Z,98819.22
2022-07-28T00:05:50.482Z,98804.69
2022-07-28T00:08:17.400Z,98818.94
2022-07-28T00:10:44.309Z,98814.53
2022-07-28T00:13:11.250Z,98806.94
2022-07-28T00:15:38.104Z,98823.41
2022-07-28T00:18:05.002Z,98813.59
2022-07-28T00:20:31.868Z,98804.88
2022-07-28T00:22:58.707Z,98809.03
2022-07-28T00:25:25.618Z,98817.75
2022-07-28T00:27:53.341Z,98790.63
2022-07-28T00:30:20.300Z,98801.41
2022-07-28T00:32:47.142Z,98804.59
2022-07-28T00:35:15.038Z,98799.63
2022-07-28T00:37:42.546Z,98797.97
2022-07-28T00:40:10.502Z,98802.56
2022-07-28T00:42:37.327Z,98800.63
2022-07-28T00:45:05.344Z,98804.50
2022-07-28T00:47:33.719Z,98797.88
2022-07-28T00:50:03.810Z,98798.84
2022-07-28T00:52:30.826Z,98801.06
2022-07-28T00:54:58.681Z,98786.13
2022-07-28T00:57:25.581Z,98793.91
2022-07-28T00:59:52.460Z,98784.06
2022-07-28T01:02:19.815Z,98793.63
2022-07-28T01:04:47.093Z,98790.03
2022-07-28T01:07:40.291Z,98794.03
2022-07-28T01:10:18.085Z,98798.06
2022-07-28T01:13:11.147Z,98783.97
2022-07-28T01:15:51.015Z,98779.53
2022-07-28T01:18:26.421Z,98786.19
2022-07-28T01:21:02.894Z,98778.59
2022-07-28T01:23:32.582Z,98791.75
2022-07-28T01:26:20.962Z,98787.84
2022-07-28T01:29:44.511Z,98786.19
2022-07-28T01:32:19.355Z,98780.91
2022-07-28T01:34:56.368Z,98775.53
2022-07-28T01:37:30.700Z,98777.06
2022-07-28T01:40:01.640Z,98766.78
2022-07-28T01:42:40.799Z,98775.13
2022-07-28T01:45:09.513Z,98775.41
2022-07-28T01:47:37.224Z,98777.03
2022-07-28T01:50:08.630Z,98761.56
2022-07-28T01:52:37.446Z,98762.38
2022-07-28T01:55:06.608Z,98769.56
2022-07-28T01:57:35.333Z,98755.75
2022-07-28T02:00:05.359Z,98769.28
2022-07-28T02:02:33.867Z,98760.03
2022-07-28T02:05:04.690Z,98762.38
2022-07-28T02:07:33.867Z,98753.50
2022-07-28T02:10:02.650Z,98761.41
2022-07-28T02:12:31.392Z,98756.28
2022-07-28T02:14:59.823Z,98753.66
2022-07-28T02:17:32.582Z,98754.06
2022-07-28T02:20:01.167Z,98720.56
2022-07-28T02:22:28.477Z,98736.59
2022-07-28T02:24:56.630Z,98727.72
2022-07-28T02:27:35.523Z,98726.31
2022-07-28T02:30:16.466Z,98739.75
2022-07-28T02:33:15.253Z,98728.84
2022-07-28T02:35:50.904Z,98721.72
2022-07-28T02:38:26.323Z,98733.09
2022-07-28T02:40:57.570Z,98728.66
2022-07-28T02:43:45.842Z,98724.19
2022-07-28T02:46:20.417Z,98730.28
2022-07-28T02:48:54.093Z,98734.13
2022-07-28T02:51:25.018Z,98715.16
2022-07-28T02:53:53.124Z,98736.47
2022-07-28T02:56:21.950Z,98735.25
2022-07-28T02:58:51.576Z,98731.78
2022-07-28T03:01:20.703Z,98732.22
2022-07-28T03:03:48.997Z,98734.56
2022-07-28T03:06:17.792Z,98732.34
2022-07-28T03:08:44.810Z,98726.81
2022-07-28T03:11:13.938Z,98733.47
2022-07-28T03:13:40.906Z,98727.66
2022-07-28T03:16:08.805Z,98725.69
2022-07-28T03:18:35.683Z,98725.69
2022-07-28T03:21:02.572Z,98737.69
2022-07-28T03:23:42.561Z,98727.06
2022-07-28T03:26:33.301Z,98704.06
2022-07-28T03:29:01.210Z,98730.09
2022-07-28T03:31:29.352Z,98716.81
2022-07-28T03:33:57.112Z,98725.53
2022-07-28T03:36:31.670Z,98733.97
2022-07-28T03:39:03.685Z,98725.69
2022-07-28T03:41:33.742Z,98723.31
2022-07-28T03:44:02.611Z,98715.56
2022-07-28T03:46:29.569Z,98730.94
2022-07-28T03:48:56.516Z,98737.88
2022-07-28T03:51:25.509Z,98744.06
2022-07-28T03:53:52.413Z,98742.81
2022-07-28T03:56:19.490Z,98736.31
2022-07-28T03:58:46.306Z,98740.88
2022-07-28T04:01:13.192Z,98746.13
2022-07-28T04:03:43.988Z,98750.66
2022-07-28T04:06:15.507Z,98743.66
2022-07-28T04:08:44.570Z,98731.19
2022-07-28T04:11:11.442Z,98759.13
2022-07-28T04:13:38.497Z,98768.56
2022-07-28T04:16:07.099Z,98751.88
2022-07-28T04:18:34.375Z,98765.44
2022-07-28T04:21:01.278Z,98747.88
2022-07-28T04:23:28.289Z,98767.63
2022-07-28T04:25:55.385Z,98767.19
2022-07-28T04:28:22.400Z,98760.81
2022-07-28T04:30:49.382Z,98735.13
2022-07-28T04:33:18.514Z,98747.13
2022-07-28T04:35:46.946Z,98766.25
2022-07-28T04:38:14.923Z,98754.91
2022-07-28T04:40:42.475Z,98751.84
2022-07-28T04:43:10.281Z,98752.50
2022-07-28T04:45:37.337Z,98752.94
2022-07-28T04:48:04.890Z,98760.56
2022-07-28T04:50:32.619Z,98747.69
2022-07-28T04:52:59.907Z,98763.31
2022-07-28T04:55:26.735Z,98743.94
2022-07-28T04:57:53.560Z,98757.94
2022-07-28T05:00:22.806Z,98749.34
2022-07-28T05:02:51.283Z,98737.44
2022-07-28T05:05:18.495Z,98748.81
2022-07-28T05:07:45.359Z,98746.63
2022-07-28T05:10:12.754Z,98757.75
2022-07-28T05:12:39.735Z,98750.00
2022-07-28T05:15:07.636Z,98759.84
2022-07-28T05:17:35.143Z,98761.25
2022-07-28T05:20:03.335Z,98752.66
2022-07-28T05:22:42.582Z,98750.31
2022-07-28T05:25:21.322Z,98760.59
2022-07-28T05:27:49.094Z,98760.03
2022-07-28T05:30:17.129Z,98762.66
2022-07-28T05:32:49.127Z,98757.56
2022-07-28T05:35:16.501Z,98766.72
2022-07-28T05:37:44.431Z,98755.50
2022-07-28T05:40:14.361Z,98757.03
2022-07-28T05:42:43.059Z,98754.00
2022-07-28T05:45:15.969Z,98759.84
2022-07-28T05:47:49.234Z,98750.16
2022-07-28T05:50:17.794Z,98753.78
2022-07-28T05:52:45.932Z,98759.03
2022-07-28T05:55:13.764Z,98760.81
2022-07-28T05:57:41.218Z,98756.25
2022-07-28T06:00:17.750Z,98755.47
2022-07-28T06:02:47.152Z,98749.22
2022-07-28T06:05:14.661Z,98736.75
2022-07-28T06:07:43.745Z,98756.53
2022-07-28T06:10:14.055Z,98751.97
2022-07-28T06:12:48.160Z,98750.91
2022-07-28T06:15:27.187Z,98755.72
2022-07-28T06:17:57.604Z,98759.34
2022-07-28T06:20:27.758Z,98750.47
2022-07-28T06:22:55.803Z,98742.28
2022-07-28T06:25:25.761Z,98737.19
2022-07-28T06:27:56.191Z,98750.22
2022-07-28T06:30:24.280Z,98734.56
2022-07-28T06:32:51.129Z,98750.63
2022-07-28T06:35:19.059Z,98741.47
2022-07-28T06:37:47.563Z,98751.44
2022-07-28T06:40:16.777Z,98747.97
2022-07-28T06:42:44.715Z,98744.53
2022-07-28T06:45:19.809Z,98748.78
2022-07-28T06:47:52.674Z,98742.03
2022-07-28T06:50:25.539Z,98746.59
2022-07-28T06:52:56.373Z,98736.31
2022-07-28T06:55:23.431Z,98746.31
2022-07-28T06:57:50.296Z,98747.66
2022-07-28T07:00:17.479Z,98725.25
2022-07-28T07:02:44.366Z,98743.25
2022-07-28T07:05:12.688Z,98746.00
2022-07-28T07:07:42.965Z,98741.84
2022-07-28T07:10:10.453Z,98738.22
2022-07-28T07:12:37.842Z,98731.16
2022-07-28T07:15:05.834Z,98732.81
2022-07-28T07:17:32.850Z,98713.28
2022-07-28T07:19:59.956Z,98732.34
2022-07-28T07:22:26.875Z,98736.06
2022-07-28T07:24:57.094Z,98712.78
2022-07-28T07:27:24.787Z,98731.06
2022-07-28T07:29:51.631Z,98719.53
2022-07-28T07:32:18.448Z,98727.56
2022-07-28T07:34:45.268Z,98706.75
2022-07-28T07:37:14.562Z,98713.94
2022-07-28T07:39:41.977Z,98723.59
2022-07-28T07:42:09.455Z,98719.84
2022-07-28T07:44:36.319Z,98712.38
2022-07-28T07:47:03.869Z,98714.28
2022-07-28T07:49:44.946Z,98716.66
2022-07-28T07:52:13.457Z,98723.53
2022-07-28T07:54:40.289Z,98700.72
2022-07-28T07:57:07.116Z,98718.56
2022-07-28T07:59:33.942Z,98711.66
2022-07-28T08:02:01.249Z,98717.88
2022-07-28T08:04:28.794Z,98724.03
2022-07-28T08:06:56.263Z,98713.09
2022-07-28T08:09:23.761Z,98717.91
2022-07-28T08:11:50.662Z,98722.44
2022-07-28T08:14:18.301Z,98718.50
2022-07-28T08:16:45.474Z,98717.72
2022-07-28T08:19:12.289Z,98696.34
2022-07-28T08:21:39.624Z,98712.66
2022-07-28T08:24:07.179Z,98708.19
2022-07-28T08:26:34.057Z,98719.75
2022-07-28T08:29:00.905Z,98704.19
2022-07-28T08:31:27.772Z,98707.25
2022-07-28T08:33:55.435Z,98703.00
2022-07-28T08:36:22.724Z,98708.19
2022-07-28T08:38:50.011Z,98715.63
2022-07-28T08:41:36.912Z,98684.22
2022-07-28T08:44:04.880Z,98707.88
2022-07-28T08:46:38.221Z,98709.75
2022-07-28T08:49:09.416Z,98698.03
2022-07-28T08:51:38.429Z,98702.72
2022-07-28T08:54:07.284Z,98691.63
2022-07-28T08:56:41.341Z,98685.03
2022-07-28T08:59:15.471Z,98690.09
2022-07-28T09:01:43.351Z,98691.63
2022-07-28T09:04:11.007Z,98663.38
2022-07-28T09:06:42.824Z,98674.53
2022-07-28T09:09:10.474Z,98685.09
2022-07-28T09:11:38.285Z,98660.63
2022-07-28T09:14:05.915Z,98681.81
2022-07-28T09:16:33.292Z,98672.94
2022-07-28T09:19:00.126Z,98677.59
2022-07-28T09:21:27.479Z,98674.28
2022-07-28T09:23:54.355Z,98676.63
2022-07-28T09:26:21.326Z,98681.81
2022-07-28T09:28:57.363Z,98673.06
2022-07-28T09:31:27.416Z,98668.91
2022-07-28T09:34:03.697Z,98658.84
2022-07-28T09:36:41.389Z,98666.13
2022-07-28T09:39:09.115Z,98647.75
2022-07-28T09:41:57.734Z,98665.13
2022-07-28T09:44:29.187Z,98657.19
2022-07-28T09:46:57.135Z,98646.94
2022-07-28T09:49:44.444Z,98649.59
2022-07-28T09:52:11.672Z,98650.75
2022-07-28T09:54:41.010Z,98640.78
2022-07-28T09:57:11.640Z,98641.00
2022-07-28T09:59:50.820Z,98637.72
2022-07-28T10:02:28.139Z,98637.97
2022-07-28T10:07:29.964Z,98637.81
2022-07-28T10:10:08.956Z,98631.22
2022-07-28T10:12:38.422Z,98647.41
2022-07-28T10:15:46.832Z,98639.53
2022-07-28T10:18:17.945Z,98621.50
2022-07-28T10:20:45.116Z,98632.03
2022-07-28T10:23:13.611Z,98623.03
2022-07-28T10:25:41.240Z,98637.91
2022-07-28T10:28:10.416Z,98614.63
2022-07-28T10:30:41.260Z,98623.75
2022-07-28T10:33:15.503Z,98616.63
2022-07-28T10:35:46.833Z,98623.22
2022-07-28T10:38:22.915Z,98612.97
2022-07-28T10:40:50.730Z,98616.19
2022-07-28T10:43:18.072Z,98601.94
2022-07-28T10:46:05.166Z,98588.31
2022-07-28T10:48:33.796Z,98598.06
2022-07-28T10:51:01.752Z,98601.47
2022-07-28T10:53:52.654Z,98590.03
2022-07-28T10:56:51.864Z,98603.09
2022-07-28T10:59:58.568Z,98607.22
2022-07-28T11:03:00.671Z,98602.56
2022-07-28T11:05:39.648Z,98592.28
2022-07-28T11:08:29.562Z,98600.00
2022-07-28T11:11:07.406Z,98601.13
2022-07-28T11:13:37.147Z,98601.25
2022-07-28T11:16:14.264Z,98597.19
2022-07-28T11:19:40.545Z,98598.25
2022-07-28T11:22:18.918Z,98596.81
2022-07-28T11:24:58.183Z,98592.50
2022-07-28T11:27:40.237Z,98581.81
2022-07-28T11:30:08.746Z,98580.44
2022-07-28T11:32:50.570Z,98594.31
2022-07-28T11:35:24.854Z,98586.31
2022-07-28T11:38:00.854Z,98577.31
2022-07-28T11:40:44.980Z,98596.47
2022-07-28T11:43:37.000Z,98591.34
2022-07-28T11:46:05.254Z,98586.09
2022-07-28T11:48:40.954Z,98581.03
2022-07-28T11:51:10.169Z,98584.56
2022-07-28T11:53:55.492Z,98582.50
2022-07-28T11:56:36.056Z,98587.56
2022-07-28T11:59:06.272Z,98588.28
2022-07-28T12:01:38.454Z,98581.00
2022-07-28T12:04:14.707Z,98575.38
2022-07-28T12:06:43.022Z,98566.06
2022-07-28T12:09:11.203Z,98564.31
2022-07-28T12:11:42.281Z,98567.63
2022-07-28T12:14:16.385Z,98573.13
2022-07-28T12:16:46.345Z,98568.09
2022-07-28T12:19:19.408Z,98562.97
2022-07-28T12:21:55.725Z,98548.50
2022-07-28T12:24:44.878Z,98557.75
2022-07-28T12:27:15.124Z,98562.13
2022-07-28T12:29:42.515Z,98546.03
2022-07-28T12:32:09.986Z,98561.03
2022-07-28T12:34:39.888Z,98563.94
2022-07-28T12:37:12.167Z,98559.41
2022-07-28T12:39:41.998Z,98557.19
2022-07-28T12:42:13.294Z,98552.44
2022-07-28T12:44:47.580Z,98541.13
2022-07-28T12:47:24.599Z,98544.22
2022-07-28T12:50:14.016Z,98539.50
2022-07-28T12:52:43.465Z,98545.25
2022-07-28T12:55:27.052Z,98538.22
2022-07-28T12:57:54.188Z,98534.63
2022-07-28T13:00:26.215Z,98542.38
2022-07-28T13:02:57.133Z,98536.63
2022-07-28T13:06:00.589Z,98539.91
2022-07-28T13:08:29.451Z,98540.69
2022-07-28T13:10:58.779Z,98529.41
2022-07-28T13:13:26.742Z,98522.88
2022-07-28T13:16:17.477Z,98520.88
2022-07-28T13:18:53.513Z,98514.25
2022-07-28T13:21:58.681Z,98529.09
2022-07-28T13:24:29.870Z,98523.41
2022-07-28T13:26:58.237Z,98520.38
2022-07-28T13:29:25.801Z,98523.06
2022-07-28T13:31:54.541Z,98519.34
2022-07-28T13:34:21.901Z,98518.09
2022-07-28T13:36:48.712Z,98521.78
2022-07-28T13:39:15.546Z,98469.84
2022-07-28T13:41:58.549Z,98500.84
2022-07-28T13:44:30.444Z,98499.63
2022-07-28T13:46:59.443Z,98507.47
2022-07-28T13:49:34.233Z,98495.97
2022-07-28T13:52:02.202Z,98488.97
2022-07-28T13:54:29.225Z,98484.66
2022-07-28T13:56:56.241Z,98479.75
2022-07-28T13:59:24.052Z,98489.38
2022-07-28T14:01:55.280Z,98489.34
2022-07-28T14:04:22.621Z,98490.00
2022-07-28T14:06:49.681Z,98473.53
2022-07-28T14:09:18.051Z,98481.56
2022-07-28T14:11:49.476Z,98470.91
2022-07-28T14:14:20.156Z,98476.63
2022-07-28T14:16:48.113Z,98457.09
2022-07-28T14:19:16.587Z,98465.56
2022-07-28T14:21:50.511Z,98451.59
2022-07-28T14:24:17.843Z,98460.22
2022-07-28T14:26:44.920Z,98456.53
2022-07-28T14:29:11.932Z,98457.31
2022-07-28T14:31:39.039Z,98457.75
2022-07-28T14:34:05.891Z,98429.41
2022-07-28T14:36:32.723Z,98445.44
2022-07-28T14:38:59.560Z,98444.78
2022-07-28T14:41:26.432Z,98433.72
2022-07-28T14:43:56.290Z,98437.81
2022-07-28T14:46:29.786Z,98439.28
2022-07-28T14:48:57.102Z,98436.16
2022-07-28T14:51:24.032Z,98427.56
2022-07-28T14:53:52.146Z,98426.94
2022-07-28T14:56:19.188Z,98424.91
2022-07-28T14:58:45.997Z,98439.69
2022-07-28T15:01:12.825Z,98420.38
2022-07-28T15:03:43.064Z,98433.31
2022-07-28T15:06:10.772Z,98433.53
2022-07-28T15:08:37.638Z,98432.31
2022-07-28T15:11:04.487Z,98430.84
2022-07-28T15:13:31.299Z,98435.16
2022-07-28T15:16:00.047Z,98446.69
2022-07-28T15:18:27.145Z,98438.06
2022-07-28T15:20:56.141Z,98434.75
2022-07-28T15:23:24.271Z,98429.00
2022-07-28T15:25:52.983Z,98429.00
2022-07-28T15:28:19.935Z,98434.34
2022-07-28T15:30:51.873Z,98417.13
2022-07-28T15:33:20.478Z,98417.94
2022-07-28T15:35:57.908Z,98405.84
2022-07-28T15:38:27.747Z,98414.22
2022-07-28T15:40:55.337Z,98408.69
2022-07-28T15:43:23.736Z,98419.16
2022-07-28T15:45:51.294Z,98417.13
2022-07-28T15:48:18.127Z,98420.81
2022-07-28T15:50:48.379Z,98421.00
2022-07-28T15:53:18.228Z,98423.28
2022-07-28T15:55:50.543Z,98406.03
2022-07-28T15:58:17.984Z,98408.91
2022-07-28T16:00:45.895Z,98402.13
2022-07-28T16:03:13.439Z,98410.56
2022-07-28T16:05:40.630Z,98394.34
2022-07-28T16:08:07.727Z,98399.03
2022-07-28T16:10:34.601Z,98399.88
2022-07-28T16:13:01.641Z,98396.19
2022-07-28T16:15:28.511Z,98404.41
2022-07-28T16:17:55.763Z,98396.19
2022-07-28T16:20:24.309Z,98392.47
2022-07-28T16:22:51.445Z,98402.34
2022-07-28T16:25:20.333Z,98382.22
2022-07-28T16:27:48.904Z,98389.59
2022-07-28T16:30:18.568Z,98392.91
2022-07-28T16:32:46.411Z,98367.44
2022-07-28T16:35:14.194Z,98390.41
2022-07-28T16:37:41.169Z,98388.75
2022-07-28T16:40:10.881Z,98373.38
2022-07-28T16:42:37.750Z,98372.53
2022-07-28T16:45:05.251Z,98373.78
2022-07-28T16:47:32.128Z,98381.16
2022-07-28T16:49:59.247Z,98378.91
2022-07-28T16:52:27.413Z,98387.75
2022-07-28T16:54:54.316Z,98386.09
2022-07-28T16:57:21.165Z,98392.47
2022-07-28T16:59:49.051Z,98375.41
2022-07-28T17:02:17.326Z,98373.38
2022-07-28T17:04:44.422Z,98362.72
2022-07-28T17:07:11.367Z,98385.88
2022-07-28T17:09:39.137Z,98381.81
2022-07-28T17:12:07.317Z,98381.97
2022-07-28T17:14:34.157Z,98390.59
2022-07-28T17:17:00.983Z,98387.53
2022-07-28T17:19:27.829Z,98380.16
2022-07-28T17:22:01.105Z,98391.00
2022-07-28T17:24:28.119Z,98395.53
2022-07-28T17:29:42.580Z,98398.56
2022-07-28T17:32:10.176Z,98411.31
2022-07-28T17:34:37.775Z,98410.47
2022-07-28T17:37:05.266Z,98416.84
2022-07-28T17:39:32.370Z,98416.63
2022-07-28T17:41:59.244Z,98409.16
2022-07-28T17:44:26.079Z,98421.06
2022-07-28T17:46:53.053Z,98420.25
2022-07-28T17:49:20.109Z,98419.59
2022-07-28T17:51:47.557Z,98433.75
2022-07-28T17:54:15.751Z,98426.31
2022-07-28T17:56:42.850Z,98425.91
2022-07-28T17:59:10.405Z,98414.81
2022-07-28T18:01:38.964Z,98416.47
2022-07-28T18:04:09.125Z,98423.84
2022-07-28T18:06:38.321Z,98427.06
2022-07-28T18:09:08.585Z,98405.28
2022-07-28T18:11:55.927Z,98417.63
2022-07-28T18:14:30.214Z,98417.56
2022-07-28T18:16:58.382Z,98420.63
2022-07-28T18:19:27.071Z,98417.53
2022-07-28T18:21:54.300Z,98416.66
2022-07-28T18:24:22.405Z,98418.72
2022-07-28T18:26:51.338Z,98415.22
2022-07-28T18:29:20.175Z,98419.28
2022-07-28T18:31:48.364Z,98419.50
2022-07-28T18:34:15.718Z,98406.34
2022-07-28T18:36:43.219Z,98415.75
2022-07-28T18:39:10.524Z,98404.41
2022-07-28T18:41:46.347Z,98428.03
2022-07-28T18:44:18.364Z,98408.09
2022-07-28T18:46:46.071Z,98403.00
2022-07-28T18:49:13.407Z,98408.69
2022-07-28T18:51:44.900Z,98405.84
2022-07-28T18:54:21.503Z,98399.66
2022-07-28T18:56:54.111Z,98404.34
2022-07-28T18:59:21.844Z,98386.84
2022-07-28T19:01:48.764Z,98396.28
2022-07-28T19:04:16.075Z,98400.75
2022-07-28T19:06:43.246Z,98413.41
2022-07-28T19:09:10.138Z,98424.44
2022-07-28T19:11:38.405Z,98411.22
2022-07-28T19:14:07.046Z,98423.94
2022-07-28T19:16:33.954Z,98426.41
2022-07-28T19:19:00.762Z,98425.97
2022-07-28T19:21:28.036Z,98437.00
2022-07-28T19:23:54.865Z,98447.81
2022-07-28T19:26:21.885Z,98439.97
2022-07-28T19:28:48.761Z,98445.91
2022-07-28T19:31:15.700Z,98438.88
2022-07-28T19:33:43.923Z,98436.63
2022-07-28T19:36:13.665Z,98450.34
2022-07-28T19:38:41.250Z,98452.38
2022-07-28T19:41:09.207Z,98461.75
2022-07-28T19:43:36.363Z,98453.88
2022-07-28T19:46:03.490Z,98470.09
2022-07-28T19:48:30.517Z,98475.16
2022-07-28T19:50:57.563Z,98503.41
2022-07-28T19:53:25.329Z,98507.53
2022-07-28T19:55:59.282Z,98532.19
2022-07-28T19:58:26.211Z,98559.09
2022-07-28T20:00:53.680Z,98581.66
2022-07-28T20:04:02.613Z,98599.34
2022-07-28T20:06:10.850Z,98603.88
2022-07-28T20:08:38.105Z,98662.25
2022-07-28T20:11:05.217Z,98617.16
2022-07-28T20:13:32.040Z,98631.72
2022-07-28T20:15:58.935Z,98646.41
2022-07-28T20:18:25.847Z,98689.81
2022-07-28T20:20:52.674Z,98701.34
2022-07-28T20:23:19.572Z,98703.50
2022-07-28T20:25:46.741Z,98690.56
2022-07-28T20:28:13.582Z,98705.81
2022-07-28T20:30:40.661Z,98715.22
2022-07-28T20:33:08.185Z,98704.22
2022-07-28T20:35:35.203Z,98731.50
2022-07-28T20:38:03.035Z,98718.91
2022-07-28T20:40:29.891Z,98746.69
2022-07-28T20:42:56.720Z,98747.47
2022-07-28T20:45:23.780Z,98739.69
2022-07-28T20:47:50.678Z,98743.16
2022-07-28T20:50:17.716Z,98727.16
2022-07-28T20:52:44.626Z,98735.88
2022-07-28T20:55:12.309Z,98746.59
2022-07-28T20:57:39.175Z,98759.13
2022-07-28T21:00:07.739Z,98759.25
2022-07-28T21:30:28.100Z,98509.09
2022-07-28T21:33:38.297Z,98614.78
2022-07-28T21:36:51.857Z,98621.94
2022-07-28T21:54:47.971Z,98725.47
2022-07-28T21:57:20.949Z,98736.03
2022-07-28T21:59:53.728Z,98729.25
2022-07-28T22:02:20.669Z,98740.91
2022-07-28T22:04:51.399Z,98743.63
2022-07-28T22:07:18.302Z,98741.84
2022-07-28T22:09:45.286Z,98760.44
2022-07-28T22:12:12.266Z,98758.13
2022-07-28T22:14:39.128Z,98758.94
2022-07-28T22:17:06.009Z,98766.09
2022-07-28T22:19:32.831Z,98776.38
2022-07-28T22:21:59.931Z,98774.00
2022-07-28T22:24:26.847Z,98776.94
2022-07-28T22:26:53.953Z,98771.38
2022-07-28T22:29:20.876Z,98755.47
2022-07-28T22:31:47.854Z,98749.31
2022-07-28T22:34:15.082Z,98755.50
2022-07-28T22:36:42.097Z,98744.19
2022-07-28T22:39:09.975Z,98746.53
2022-07-28T22:41:36.822Z,98747.38
2022-07-28T22:44:04.135Z,98765.00
2022-07-28T22:46:34.144Z,98742.75
2022-07-28T22:49:01.099Z,98744.25
2022-07-28T22:51:28.064Z,98751.97
2022-07-28T22:53:55.210Z,98726.94
2022-07-28T22:56:22.064Z,98743.06
2022-07-28T22:58:48.891Z,98756.63
2022-07-28T23:01:15.812Z,98737.56
2022-07-28T23:03:43.036Z,98760.81
2022-07-28T23:06:11.868Z,98745.09
2022-07-28T23:08:38.761Z,98730.69
2022-07-28T23:11:05.888Z,98748.09
2022-07-28T23:13:32.771Z,98750.28
2022-07-28T23:15:59.641Z,98738.97
2022-07-28T23:18:26.494Z,98737.41
2022-07-28T23:20:53.330Z,98737.09
2022-07-28T23:23:21.229Z,98728.53
2022-07-28T23:25:55.222Z,98723.53
2022-07-28T23:38:29.444Z,98616.41
2022-07-28T23:41:03.923Z,98608.34
2022-07-28T23:44:13.134Z,98634.88
2022-07-28T23:46:52.843Z,98724.16
